Time;durP1;ratioP1;P1;durP2;ratioP2;P2;SDS_P1;SDS_P2;PMS_P1;PMS_P2;Temp;Humidity;BMP_temperature;BMP_pressure;BME280_temperature;BME280_humidity;BME280_pressure;Samples;Min_cycle;Max_cycle;Signal;HPM_P1;HPM_P2
2021/12/22 00:00:22;;;;;;;;;;;;;;;;;;2060634;28;856;-78
2021/12/22 00:01:25;;;;;;;;;;;;;;;;;;2064765;28;2032;-78
2021/12/22 00:02:29;;;;;;;;;;;;;;;;;;2060332;28;1562;-79
2021/12/22 00:03:31;;;;;;;;;;;;;;;;;;2060564;28;1907;-79
2021/12/22 00:04:37;;;;;;;;;;;;;;;;;;2069043;28;796;-79
2021/12/22 00:05:44;;;;;;;;;;;;;;;;;;2068473;28;1687;-79
2021/12/22 00:06:45;;;;;;;;;;;;;;;;;;2061061;28;2078;-79
2021/12/22 00:07:47;;;;;;;;;;;;;;;;;;2061112;28;1008;-79
2021/12/22 00:08:48;;;;;;;;;;;;;;;;;;2061214;28;832;-79
2021/12/22 00:09:50;;;;;;;;;;;;;;;;;;2060706;28;797;-79
2021/12/22 00:10:52;;;;;;;;;;;;;;;;;;2060535;28;1700;-79
2021/12/22 00:11:54;;;;;;;;;;;;;;;;;;2060290;28;872;-78
2021/12/22 00:12:55;;;;;;;;;;;;;;;;;;2060617;28;1550;-79
2021/12/22 00:13:56;;;;;;;;;;;;;;;;;;2058880;28;962;-79
2021/12/22 00:14:58;;;;;;;;;;;;;;;;;;2050940;29;1893;-84
2021/12/22 00:15:58;;;;;;;;;;;;;;;;;;2053093;28;2083;-79
2021/12/22 00:17:00;;;;;;;;;;;;;;;;;;2059146;28;1408;-79
2021/12/22 00:18:02;;;;;;;;;;;;;;;;;;2051483;28;886;-78
2021/12/22 00:19:02;;;;;;;;;;;;;;;;;;2067866;28;1029;-79
2021/12/22 00:20:05;;;;;;;;;;;;;;;;;;2067738;28;792;-76
2021/12/22 00:21:06;;;;;;;;;;;;;;;;;;2065536;28;2069;-79
2021/12/22 00:22:07;;;;;;;;;;;;;;;;;;2058980;28;1643;-77
2021/12/22 00:23:08;;;;;;;;;;;;;;;;;;2050846;28;1968;-78
2021/12/22 00:24:10;;;;;;;;;;;;;;;;;;2043148;29;1242;-77
2021/12/22 00:25:13;;;;;;;;;;;;;;;;;;2043086;29;1279;-77
2021/12/22 00:26:15;;;;;;;;;;;;;;;;;;2051080;28;2064;-78
2021/12/22 00:27:16;;;;;;;;;;;;;;;;;;2059524;28;1438;-76
2021/12/22 00:28:17;;;;;;;;;;;;;;;;;;2059752;28;798;-77
2021/12/22 00:29:19;;;;;;;;;;;;;;;;;;2059719;28;864;-77
2021/12/22 00:30:21;;;;;;;;;;;;;;;;;;2051145;29;1218;-77
2021/12/22 00:31:22;;;;;;;;;;;;;;;;;;2058496;28;1649;-77
2021/12/22 00:32:25;;;;;;;;;;;;;;;;;;2070380;28;1140;-77
2021/12/22 00:33:30;;;;;;;;;;;;;;;;;;2071509;28;832;-77
2021/12/22 00:34:30;;;;;;;;;;;;;;;;;;2067103;28;1614;-76
2021/12/22 00:35:40;;;;;;;;;;;;;;;;;;2066804;28;1376;-77
2021/12/22 00:36:41;;;;;;;;;;;;;;;;;;2052618;28;1382;-76
2021/12/22 00:37:43;;;;;;;;;;;;;;;;;;2056747;28;957;-77
2021/12/22 00:38:44;;;;;;;;;;;;;;;;;;2066937;28;1476;-77
2021/12/22 00:39:47;;;;;;;;;;;;;;;;;;2066865;28;1678;-77
2021/12/22 00:40:50;;;;;;;;;;;;;;;;;;2058992;28;1372;-77
2021/12/22 00:41:51;;;;;;;;;;;;;;;;;;2050753;28;2124;-78
2021/12/22 00:42:52;;;;;;;;;;;;;;;;;;2058839;28;1968;-77
2021/12/22 00:43:54;;;;;;;;;;;;;;;;;;2066769;28;1687;-77
2021/12/22 00:44:54;;;;;;;;;;;;;;;;;;2058931;28;1321;-77
2021/12/22 00:45:56;;;;;;;;;;;;;;;;;;2058641;28;761;-78
2021/12/22 00:46:57;;;;;;;;;;;;;;;;;;2066803;28;1648;-82
2021/12/22 00:47:58;;;;;;;;;;;;;;;;;;2067232;28;1079;-77
2021/12/22 00:48:59;;;;;;;;;;;;;;;;;;2067387;28;836;-77
2021/12/22 00:50:01;;;;;;;;;;;;;;;;;;2059129;28;1218;-77
2021/12/22 00:51:02;;;;;;;;;;;;;;;;;;2058859;28;942;-78
2021/12/22 00:52:04;;;;;;;;;;;;;;;;;;2058883;28;1281;-83
2021/12/22 00:53:05;;;;;;;;;;;;;;;;;;2058738;28;852;-78
2021/12/22 00:54:07;;;;;;;;;;;;;;;;;;2058866;28;1180;-78
2021/12/22 00:55:08;;;;;;;;;;;;;;;;;;2058770;28;1247;-78
2021/12/22 00:56:11;;;;;;;;;;;;;;;;;;2069417;28;828;-78
2021/12/22 00:57:12;;;;;;;;;;;;;;;;;;2069214;28;954;-78
2021/12/22 00:58:13;;;;;;;;;;;;;;;;;;2066894;28;1836;-78
2021/12/22 00:59:15;;;;;;;;;;;;;;;;;;2066806;28;1092;-79
2021/12/22 01:00:18;;;;;;;;;;;;;;;;;;2075803;28;800;-78
2021/12/22 01:01:19;;;;;;;;;;;;;;;;;;2071581;28;1048;-78
2021/12/22 01:02:20;;;;;;;;;;;;;;;;;;2058935;28;1605;-78
2021/12/22 01:03:21;;;;;;;;;;;;;;;;;;2050723;28;1911;-79
2021/12/22 01:04:23;;;;;;;;;;;;;;;;;;2059084;28;1236;-78
2021/12/22 01:05:24;;;;;;;;;;;;;;;;;;2058460;28;1590;-78
2021/12/22 01:06:27;;;;;;;;;;;;;;;;;;2058529;28;1850;-78
2021/12/22 01:07:29;;;;;;;;;;;;;;;;;;2059068;28;851;-78
2021/12/22 01:08:29;;;;;;;;;;;;;;;;;;2058910;28;1410;-80
2021/12/22 01:09:31;;;;;;;;;;;;;;;;;;2050696;29;1265;-78
2021/12/22 01:10:32;;;;;;;;;;;;;;;;;;2050849;28;1593;-79
2021/12/22 01:11:35;;;;;;;;;;;;;;;;;;2064208;28;2024;-79
2021/12/22 01:12:36;;;;;;;;;;;;;;;;;;2057985;28;1670;-78
2021/12/22 01:13:38;;;;;;;;;;;;;;;;;;2058612;28;930;-79
2021/12/22 01:14:39;;;;;;;;;;;;;;;;;;2058735;28;1166;-78
2021/12/22 01:15:40;;;;;;;;;;;;;;;;;;2058581;28;1169;-79
2021/12/22 01:16:46;;;;;;;;;;;;;;;;;;2058572;28;937;-79
2021/12/22 01:17:55;;;;;;;;;;;;;;;;;;2066591;28;1282;-77
2021/12/22 01:19:01;;;;;;;;;;;;;;;;;;2066715;28;1694;-78
2021/12/22 01:20:08;;;;;;;;;;;;;;;;;;2066717;28;1550;-77
2021/12/22 01:21:15;;;;;;;;;;;;;;;;;;2058629;28;1600;-78
2021/12/22 01:22:22;;;;;;;;;;;;;;;;;;2059215;28;1559;-77
2021/12/22 01:23:24;;;;;;;;;;;;;;;;;;2066555;28;1914;-78
2021/12/22 01:24:31;;;;;;;;;;;;;;;;;;2067412;28;854;-77
2021/12/22 01:25:35;;;;;;;;;;;;;;;;;;2066647;28;820;-77
2021/12/22 01:26:41;;;;;;;;;;;;;;;;;;2071794;28;1292;-78
2021/12/22 01:27:44;;;;;;;;;;;;;;;;;;2066464;28;1662;-78
2021/12/22 01:28:44;;;;;;;;;;;;;;;;;;2066538;28;852;-77
2021/12/22 01:29:47;;;;;;;;;;;;;;;;;;2073543;28;1096;-78
2021/12/22 01:30:49;;;;;;;;;;;;;;;;;;2074607;28;1303;-78
2021/12/22 01:31:50;;;;;;;;;;;;;;;;;;2074658;28;848;-78
2021/12/22 01:32:52;;;;;;;;;;;;;;;;;;2075347;28;891;-78
2021/12/22 01:33:54;;;;;;;;;;;;;;;;;;2066341;28;1521;-77
2021/12/22 01:34:54;;;;;;;;;;;;;;;;;;2066774;28;762;-77
2021/12/22 01:35:56;;;;;;;;;;;;;;;;;;2065489;28;1840;-77
2021/12/22 01:36:58;;;;;;;;;;;;;;;;;;2058540;28;1575;-77
2021/12/22 01:38:00;;;;;;;;;;;;;;;;;;2066574;28;769;-78
2021/12/22 01:39:01;;;;;;;;;;;;;;;;;;2066884;28;982;-78
2021/12/22 01:40:03;;;;;;;;;;;;;;;;;;2058481;28;1540;-77
2021/12/22 01:41:04;;;;;;;;;;;;;;;;;;2048465;29;2034;-77
2021/12/22 01:42:07;;;;;;;;;;;;;;;;;;2050556;29;1204;-82
2021/12/22 01:43:08;;;;;;;;;;;;;;;;;;2058306;28;1347;-78
2021/12/22 01:44:13;;;;;;;;;;;;;;;;;;2050441;29;1902;-78
2021/12/22 01:45:29;;;;;;;;;;;;;;;;;;2050944;28;864;-78
2021/12/22 01:49:09;;;;;;;;;;;;;;;;;;2058978;28;1246;-78
2021/12/22 01:49:15;;;;;;;;;;;;;;;;;;2052638;28;1680;-77
2021/12/22 01:50:17;;;;;;;;;;;;;;;;;;2058233;28;1253;-77
2021/12/22 01:51:18;;;;;;;;;;;;;;;;;;2050354;29;1714;-77
2021/12/22 01:52:20;;;;;;;;;;;;;;;;;;2050455;29;1385;-77
2021/12/22 01:53:34;;;;;;;;;;;;;;;;;;2058059;28;975;-77
2021/12/22 01:54:38;;;;;;;;;;;;;;;;;;2058424;28;1590;-82
2021/12/22 01:55:45;;;;;;;;;;;;;;;;;;2058237;28;922;-78
2021/12/22 01:56:46;;;;;;;;;;;;;;;;;;2059346;28;1903;-78
2021/12/22 01:57:50;;;;;;;;;;;;;;;;;;2058754;28;734;-78
2021/12/22 01:58:56;;;;;;;;;;;;;;;;;;2058733;28;1113;-78
2021/12/22 02:00:00;;;;;;;;;;;;;;;;;;2058229;28;1550;-79
2021/12/22 02:01:01;;;;;;;;;;;;;;;;;;2050054;29;1357;-79
2021/12/22 02:02:07;;;;;;;;;;;;;;;;;;2050316;28;828;-79
2021/12/22 02:03:10;;;;;;;;;;;;;;;;;;2057989;28;1458;-79
2021/12/22 02:04:12;;;;;;;;;;;;;;;;;;2057962;28;1907;-78
2021/12/22 02:05:14;;;;;;;;;;;;;;;;;;2058603;28;952;-78
2021/12/22 02:06:16;;;;;;;;;;;;;;;;;;2058766;28;1382;-78
2021/12/22 02:07:18;;;;;;;;;;;;;;;;;;2058355;28;1584;-78
2021/12/22 02:08:18;;;;;;;;;;;;;;;;;;2050405;29;1722;-78
2021/12/22 02:09:35;;;;;;;;;;;;;;;;;;2050273;29;962;-78
2021/12/22 02:10:40;;;;;;;;;;;;;;;;;;2049685;29;1665;-79
2021/12/22 02:11:42;;;;;;;;;;;;;;;;;;2050879;28;1791;-78
2021/12/22 02:12:48;;;;;;;;;;;;;;;;;;2057743;28;1014;-78
2021/12/22 02:13:56;;;;;;;;;;;;;;;;;;2049568;29;1684;-81
2021/12/22 02:14:58;;;;;;;;;;;;;;;;;;2050725;28;964;-77
2021/12/22 02:16:06;;;;;;;;;;;;;;;;;;2050453;28;950;-80
2021/12/22 02:17:09;;;;;;;;;;;;;;;;;;2049558;29;1609;-77
2021/12/22 02:18:16;;;;;;;;;;;;;;;;;;2050280;28;1751;-79
2021/12/22 02:19:17;;;;;;;;;;;;;;;;;;2049737;29;1566;-78
2021/12/22 02:20:20;;;;;;;;;;;;;;;;;;2041792;29;1667;-78
2021/12/22 02:21:23;;;;;;;;;;;;;;;;;;2050516;28;1894;-79
2021/12/22 02:22:26;;;;;;;;;;;;;;;;;;2049670;29;1276;-78
2021/12/22 02:23:27;;;;;;;;;;;;;;;;;;2041687;29;1753;-77
2021/12/22 02:24:28;;;;;;;;;;;;;;;;;;2049552;29;1906;-78
2021/12/22 02:25:38;;;;;;;;;;;;;;;;;;2049550;29;1689;-78
2021/12/22 02:26:45;;;;;;;;;;;;;;;;;;2051576;28;1845;-80
2021/12/22 02:27:51;;;;;;;;;;;;;;;;;;2058123;28;1027;-80
2021/12/22 02:28:59;;;;;;;;;;;;;;;;;;2049802;29;1485;-78
2021/12/22 02:30:04;;;;;;;;;;;;;;;;;;2041914;29;1316;-78
2021/12/22 02:31:05;;;;;;;;;;;;;;;;;;2042571;28;1856;-78
2021/12/22 02:32:12;;;;;;;;;;;;;;;;;;2049785;29;1059;-79
2021/12/22 02:33:24;;;;;;;;;;;;;;;;;;2056502;28;1527;-80
2021/12/22 02:34:25;;;;;;;;;;;;;;;;;;2057843;28;1683;-79
2021/12/22 02:35:39;;;;;;;;;;;;;;;;;;2057744;28;872;-79
2021/12/22 02:36:41;;;;;;;;;;;;;;;;;;2063595;28;1848;-80
2021/12/22 02:37:44;;;;;;;;;;;;;;;;;;2065059;28;1486;-79
2021/12/22 02:38:46;;;;;;;;;;;;;;;;;;2065525;28;1093;-79
2021/12/22 02:39:47;;;;;;;;;;;;;;;;;;2066010;28;1016;-80
2021/12/22 02:40:50;;;;;;;;;;;;;;;;;;2065663;28;1422;-78
2021/12/22 02:41:51;;;;;;;;;;;;;;;;;;2057707;28;2003;-78
2021/12/22 02:43:02;;;;;;;;;;;;;;;;;;2057536;28;1198;-80
2021/12/22 02:44:07;;;;;;;;;;;;;;;;;;2042068;29;1907;-80
2021/12/22 02:45:08;;;;;;;;;;;;;;;;;;2049760;28;1736;-79
2021/12/22 02:46:10;;;;;;;;;;;;;;;;;;2057841;28;1967;-78
2021/12/22 02:47:19;;;;;;;;;;;;;;;;;;2058194;28;939;-79
2021/12/22 02:48:19;;;;;;;;;;;;;;;;;;2058173;28;899;-80
2021/12/22 02:49:21;;;;;;;;;;;;;;;;;;2058265;28;880;-82
2021/12/22 02:50:21;;;;;;;;;;;;;;;;;;2058168;28;1130;-79
2021/12/22 02:51:27;;;;;;;;;;;;;;;;;;2057644;28;1881;-80
2021/12/22 02:52:35;;;;;;;;;;;;;;;;;;2049415;29;1659;-79
2021/12/22 02:53:42;;;;;;;;;;;;;;;;;;2050466;28;1074;-79
2021/12/22 02:54:49;;;;;;;;;;;;;;;;;;2057506;28;1673;-79
2021/12/22 02:55:58;;;;;;;;;;;;;;;;;;2057546;28;922;-79
2021/12/22 02:57:18;;;;;;;;;;;;;;;;;;2058160;28;895;-80
2021/12/22 02:58:30;;;;;;;;;;;;;;;;;;2058053;28;980;-79
2021/12/22 02:59:52;;;;;;;;;;;;;;;;;;2058150;28;877;-79
2021/12/22 03:01:07;;;;;;;;;;;;;;;;;;2049081;28;1964;-80
2021/12/22 03:02:19;;;;;;;;;;;;;;;;;;2051698;28;880;-82
2021/12/22 03:03:32;;;;;;;;;;;;;;;;;;2058002;28;1158;-79
2021/12/22 03:04:43;;;;;;;;;;;;;;;;;;2049316;28;1972;-78
2021/12/22 03:05:45;;;;;;;;;;;;;;;;;;2042845;29;1211;-79
2021/12/22 03:06:54;;;;;;;;;;;;;;;;;;2049620;28;1941;-79
2021/12/22 03:07:56;;;;;;;;;;;;;;;;;;2057182;28;1622;-79
2021/12/22 03:08:57;;;;;;;;;;;;;;;;;;2057489;28;935;-80
2021/12/22 03:10:00;;;;;;;;;;;;;;;;;;2058184;28;870;-78
2021/12/22 03:11:01;;;;;;;;;;;;;;;;;;2057134;28;1900;-78
2021/12/22 03:12:03;;;;;;;;;;;;;;;;;;2049595;29;1567;-80
2021/12/22 03:13:05;;;;;;;;;;;;;;;;;;2049730;28;920;-78
2021/12/22 03:14:07;;;;;;;;;;;;;;;;;;2057468;28;1315;-79
2021/12/22 03:15:10;;;;;;;;;;;;;;;;;;2057400;28;1058;-80
2021/12/22 03:16:10;;;;;;;;;;;;;;;;;;2055221;28;1960;-78
2021/12/22 03:17:12;;;;;;;;;;;;;;;;;;2041200;29;1657;-78
2021/12/22 03:18:13;;;;;;;;;;;;;;;;;;2041645;29;1216;-82
2021/12/22 03:19:16;;;;;;;;;;;;;;;;;;2041610;29;1732;-79
2021/12/22 03:20:18;;;;;;;;;;;;;;;;;;2049633;28;1048;-80
2021/12/22 03:21:20;;;;;;;;;;;;;;;;;;2049213;29;1681;-80
2021/12/22 03:22:24;;;;;;;;;;;;;;;;;;2041795;29;1344;-80
2021/12/22 03:23:25;;;;;;;;;;;;;;;;;;2049504;28;1551;-79
2021/12/22 03:24:29;;;;;;;;;;;;;;;;;;2049381;29;1919;-81
2021/12/22 03:25:31;;;;;;;;;;;;;;;;;;2041681;29;1687;-79
2021/12/22 03:26:31;;;;;;;;;;;;;;;;;;2050157;28;1862;-79
2021/12/22 03:27:33;;;;;;;;;;;;;;;;;;2057671;28;1037;-79
2021/12/22 03:28:33;;;;;;;;;;;;;;;;;;2058421;28;789;-80
2021/12/22 03:29:36;;;;;;;;;;;;;;;;;;2057909;28;943;-79
2021/12/22 03:30:37;;;;;;;;;;;;;;;;;;2049357;29;1525;-81
2021/12/22 03:31:39;;;;;;;;;;;;;;;;;;2049149;28;952;-81
2021/12/22 03:32:40;;;;;;;;;;;;;;;;;;2057287;28;1491;-78
2021/12/22 03:33:42;;;;;;;;;;;;;;;;;;2057117;28;1698;-79
2021/12/22 03:34:42;;;;;;;;;;;;;;;;;;2057690;28;902;-79
2021/12/22 03:35:44;;;;;;;;;;;;;;;;;;2057185;28;1678;-78
2021/12/22 03:36:45;;;;;;;;;;;;;;;;;;2057943;28;1849;-80
2021/12/22 03:37:50;;;;;;;;;;;;;;;;;;2057919;28;939;-78
2021/12/22 03:38:50;;;;;;;;;;;;;;;;;;2057452;28;1471;-78
2021/12/22 03:39:52;;;;;;;;;;;;;;;;;;2057215;28;888;-79
2021/12/22 03:40:52;;;;;;;;;;;;;;;;;;2057903;28;1832;-79
2021/12/22 03:41:54;;;;;;;;;;;;;;;;;;2057682;28;958;-79
2021/12/22 03:42:55;;;;;;;;;;;;;;;;;;2057898;28;919;-80
2021/12/22 03:43:56;;;;;;;;;;;;;;;;;;2057724;28;902;-79
2021/12/22 03:44:58;;;;;;;;;;;;;;;;;;2049075;29;1957;-79
2021/12/22 03:45:59;;;;;;;;;;;;;;;;;;2041770;28;1899;-80
2021/12/22 03:47:01;;;;;;;;;;;;;;;;;;2049219;28;1353;-79
2021/12/22 03:48:02;;;;;;;;;;;;;;;;;;2049803;28;1333;-79
2021/12/22 03:49:04;;;;;;;;;;;;;;;;;;2057087;28;1222;-79
2021/12/22 03:50:05;;;;;;;;;;;;;;;;;;2059023;28;959;-79
2021/12/22 03:51:07;;;;;;;;;;;;;;;;;;2059259;28;1852;-78
2021/12/22 03:52:08;;;;;;;;;;;;;;;;;;2059861;28;1068;-79
2021/12/22 03:53:11;;;;;;;;;;;;;;;;;;2058600;28;1418;-78
2021/12/22 03:54:12;;;;;;;;;;;;;;;;;;2058895;28;915;-79
2021/12/22 03:55:14;;;;;;;;;;;;;;;;;;2058632;28;1555;-80
2021/12/22 03:56:15;;;;;;;;;;;;;;;;;;2056005;28;1834;-79
2021/12/22 03:57:16;;;;;;;;;;;;;;;;;;2050312;28;1365;-78
2021/12/22 03:58:17;;;;;;;;;;;;;;;;;;2050792;29;1565;-80
2021/12/22 03:59:19;;;;;;;;;;;;;;;;;;2058639;28;933;-78
2021/12/22 04:00:20;;;;;;;;;;;;;;;;;;2059308;28;959;-79
2021/12/22 04:01:21;;;;;;;;;;;;;;;;;;2059553;28;2014;-79
2021/12/22 04:02:22;;;;;;;;;;;;;;;;;;2050766;29;1489;-79
2021/12/22 04:03:28;;;;;;;;;;;;;;;;;;2050796;28;920;-79
2021/12/22 04:04:29;;;;;;;;;;;;;;;;;;2059396;28;1992;-79
2021/12/22 04:05:30;;;;;;;;;;;;;;;;;;2050447;28;1486;-78
2021/12/22 04:06:31;;;;;;;;;;;;;;;;;;2043032;28;2014;-78
2021/12/22 04:07:33;;;;;;;;;;;;;;;;;;2050848;29;927;-79
2021/12/22 04:08:35;;;;;;;;;;;;;;;;;;2050788;29;1846;-78
2021/12/22 04:09:37;;;;;;;;;;;;;;;;;;2050416;28;917;-79
2021/12/22 04:10:37;;;;;;;;;;;;;;;;;;2059391;28;943;-79
2021/12/22 04:11:39;;;;;;;;;;;;;;;;;;2058922;28;1901;-79
2021/12/22 04:12:40;;;;;;;;;;;;;;;;;;2058901;28;1035;-79
2021/12/22 04:13:42;;;;;;;;;;;;;;;;;;2059125;28;958;-79
2021/12/22 04:14:43;;;;;;;;;;;;;;;;;;2058654;28;1248;-79
2021/12/22 04:15:45;;;;;;;;;;;;;;;;;;2058363;28;879;-80
2021/12/22 04:16:45;;;;;;;;;;;;;;;;;;2059676;28;1868;-79
2021/12/22 04:17:47;;;;;;;;;;;;;;;;;;2058911;28;881;-79
2021/12/22 04:18:49;;;;;;;;;;;;;;;;;;2059109;28;1027;-80
2021/12/22 04:19:49;;;;;;;;;;;;;;;;;;2058484;28;1243;-79
2021/12/22 04:20:52;;;;;;;;;;;;;;;;;;2058449;28;925;-81
2021/12/22 04:21:52;;;;;;;;;;;;;;;;;;2059537;28;824;-80
2021/12/22 04:22:56;;;;;;;;;;;;;;;;;;2058335;28;1615;-79
2021/12/22 04:24:00;;;;;;;;;;;;;;;;;;2058482;28;1300;-78
2021/12/22 04:25:00;;;;;;;;;;;;;;;;;;2058135;28;1977;-80
2021/12/22 04:26:02;;;;;;;;;;;;;;;;;;2059022;28;1931;-80
2021/12/22 04:27:04;;;;;;;;;;;;;;;;;;2058806;28;1109;-78
2021/12/22 04:28:08;;;;;;;;;;;;;;;;;;2059103;28;918;-78
2021/12/22 04:29:10;;;;;;;;;;;;;;;;;;2058028;28;1949;-80
2021/12/22 04:30:12;;;;;;;;;;;;;;;;;;2058474;28;1692;-81
2021/12/22 04:31:13;;;;;;;;;;;;;;;;;;2057824;28;1874;-79
2021/12/22 04:32:14;;;;;;;;;;;;;;;;;;2050552;29;1515;-83
2021/12/22 04:33:16;;;;;;;;;;;;;;;;;;2050695;29;1027;-78
2021/12/22 04:34:16;;;;;;;;;;;;;;;;;;2058422;28;1652;-80
2021/12/22 04:35:18;;;;;;;;;;;;;;;;;;2058448;28;1230;-79
2021/12/22 04:36:20;;;;;;;;;;;;;;;;;;2058109;28;1906;-79
2021/12/22 04:37:20;;;;;;;;;;;;;;;;;;2050470;29;1491;-80
2021/12/22 04:38:22;;;;;;;;;;;;;;;;;;2050221;29;1743;-80
2021/12/22 04:39:25;;;;;;;;;;;;;;;;;;2050387;28;914;-78
2021/12/22 04:40:27;;;;;;;;;;;;;;;;;;2050442;29;1618;-79
2021/12/22 04:41:28;;;;;;;;;;;;;;;;;;2055049;28;1866;-80
2021/12/22 04:42:29;;;;;;;;;;;;;;;;;;2050388;29;1331;-79
2021/12/22 04:43:30;;;;;;;;;;;;;;;;;;2050329;28;1165;-79
2021/12/22 04:44:31;;;;;;;;;;;;;;;;;;2058469;28;1914;-78
2021/12/22 04:45:32;;;;;;;;;;;;;;;;;;2058434;28;920;-78
2021/12/22 04:46:34;;;;;;;;;;;;;;;;;;2059098;28;1039;-80
2021/12/22 04:47:34;;;;;;;;;;;;;;;;;;2058479;28;1553;-79
2021/12/22 04:48:36;;;;;;;;;;;;;;;;;;2058453;28;928;-78
2021/12/22 04:49:37;;;;;;;;;;;;;;;;;;2058334;28;1214;-77
2021/12/22 04:50:38;;;;;;;;;;;;;;;;;;2058579;28;1681;-78
2021/12/22 04:51:48;;;;;;;;;;;;;;;;;;2050836;28;1842;-80
2021/12/22 04:52:55;;;;;;;;;;;;;;;;;;2043517;29;1517;-80
2021/12/22 04:54:03;;;;;;;;;;;;;;;;;;2050866;28;1544;-77
2021/12/22 04:55:06;;;;;;;;;;;;;;;;;;2050196;29;1701;-78
2021/12/22 04:56:07;;;;;;;;;;;;;;;;;;2051109;28;1997;-78
2021/12/22 04:57:08;;;;;;;;;;;;;;;;;;2058019;28;1347;-79
2021/12/22 04:58:10;;;;;;;;;;;;;;;;;;2050530;29;1626;-81
2021/12/22 04:59:11;;;;;;;;;;;;;;;;;;2042382;29;1534;-78
2021/12/22 05:00:13;;;;;;;;;;;;;;;;;;2049932;28;920;-78
2021/12/22 05:01:15;;;;;;;;;;;;;;;;;;2050090;28;1533;-79
2021/12/22 05:02:15;;;;;;;;;;;;;;;;;;2050622;28;1676;-79
2021/12/22 05:03:17;;;;;;;;;;;;;;;;;;2050014;28;1407;-78
2021/12/22 05:04:17;;;;;;;;;;;;;;;;;;2042418;29;1208;-79
2021/12/22 05:05:19;;;;;;;;;;;;;;;;;;2042004;29;1919;-78
2021/12/22 05:06:20;;;;;;;;;;;;;;;;;;2042337;29;1361;-78
2021/12/22 05:07:21;;;;;;;;;;;;;;;;;;2050191;28;1344;-80
2021/12/22 05:08:22;;;;;;;;;;;;;;;;;;2050309;29;1310;-78
2021/12/22 05:09:24;;;;;;;;;;;;;;;;;;2050052;28;1212;-78
2021/12/22 05:10:28;;;;;;;;;;;;;;;;;;2058745;28;951;-79
2021/12/22 05:11:30;;;;;;;;;;;;;;;;;;2058904;28;1790;-79
2021/12/22 05:12:30;;;;;;;;;;;;;;;;;;2058171;28;1250;-79
2021/12/22 05:13:34;;;;;;;;;;;;;;;;;;2058171;28;1684;-80
2021/12/22 05:14:35;;;;;;;;;;;;;;;;;;2058371;28;959;-79
2021/12/22 05:15:39;;;;;;;;;;;;;;;;;;2049908;29;1922;-79
2021/12/22 05:16:45;;;;;;;;;;;;;;;;;;2042402;29;1385;-81
2021/12/22 05:18:14;;;;;;;;;;;;;;;;;;2050859;28;1856;-79
2021/12/22 05:19:15;;;;;;;;;;;;;;;;;;2058346;28;1083;-80
2021/12/22 05:20:17;;;;;;;;;;;;;;;;;;2057983;28;1308;-80
2021/12/22 05:21:21;;;;;;;;;;;;;;;;;;2057959;28;1916;-80
2021/12/22 05:22:22;;;;;;;;;;;;;;;;;;2049498;29;1327;-79
2021/12/22 05:23:24;;;;;;;;;;;;;;;;;;2050006;28;1257;-81
2021/12/22 05:24:24;;;;;;;;;;;;;;;;;;2058061;28;1101;-80
2021/12/22 05:25:27;;;;;;;;;;;;;;;;;;2057794;28;1972;-79
2021/12/22 05:26:28;;;;;;;;;;;;;;;;;;2050175;29;1298;-80
2021/12/22 05:27:30;;;;;;;;;;;;;;;;;;2050310;28;1055;-79
2021/12/22 05:28:30;;;;;;;;;;;;;;;;;;2058629;28;910;-81
2021/12/22 05:29:32;;;;;;;;;;;;;;;;;;2058720;28;930;-80
2021/12/22 05:30:33;;;;;;;;;;;;;;;;;;2058543;28;980;-80
2021/12/22 05:31:35;;;;;;;;;;;;;;;;;;2050150;28;1953;-80
2021/12/22 05:32:36;;;;;;;;;;;;;;;;;;2050810;29;888;-79
2021/12/22 05:33:38;;;;;;;;;;;;;;;;;;2050303;29;1661;-79
2021/12/22 05:34:39;;;;;;;;;;;;;;;;;;2055702;28;1217;-80
2021/12/22 05:35:40;;;;;;;;;;;;;;;;;;2058363;28;895;-80
2021/12/22 05:36:42;;;;;;;;;;;;;;;;;;2058988;28;800;-81
2021/12/22 05:37:42;;;;;;;;;;;;;;;;;;2058959;28;871;-82
2021/12/22 05:38:44;;;;;;;;;;;;;;;;;;2058373;28;1403;-80
2021/12/22 05:39:44;;;;;;;;;;;;;;;;;;2050243;29;1832;-81
2021/12/22 05:40:48;;;;;;;;;;;;;;;;;;2042519;29;1565;-79
2021/12/22 05:41:48;;;;;;;;;;;;;;;;;;2042225;29;1328;-80
2021/12/22 05:42:50;;;;;;;;;;;;;;;;;;2050346;28;1521;-79
2021/12/22 05:43:51;;;;;;;;;;;;;;;;;;2058156;28;1047;-80
2021/12/22 05:44:53;;;;;;;;;;;;;;;;;;2058221;28;1906;-82
2021/12/22 05:45:54;;;;;;;;;;;;;;;;;;2058326;28;1976;-80
2021/12/22 05:46:56;;;;;;;;;;;;;;;;;;2059209;28;875;-80
2021/12/22 05:47:57;;;;;;;;;;;;;;;;;;2058347;28;1536;-79
2021/12/22 05:49:00;;;;;;;;;;;;;;;;;;2055249;28;1272;-79
2021/12/22 05:50:03;;;;;;;;;;;;;;;;;;2055418;28;1337;-80
2021/12/22 05:51:05;;;;;;;;;;;;;;;;;;2056912;28;2114;-79
2021/12/22 05:52:06;;;;;;;;;;;;;;;;;;2050241;28;1496;-79
2021/12/22 05:53:07;;;;;;;;;;;;;;;;;;2057785;28;1741;-79
2021/12/22 05:54:08;;;;;;;;;;;;;;;;;;2061808;28;1306;-80
2021/12/22 05:55:10;;;;;;;;;;;;;;;;;;2065379;28;1293;-80
2021/12/22 05:56:13;;;;;;;;;;;;;;;;;;2052570;28;1727;-79
2021/12/22 05:57:14;;;;;;;;;;;;;;;;;;2049040;28;1591;-80
2021/12/22 05:58:15;;;;;;;;;;;;;;;;;;2055315;28;1290;-79
2021/12/22 05:59:17;;;;;;;;;;;;;;;;;;2063438;28;1266;-81
2021/12/22 06:00:18;;;;;;;;;;;;;;;;;;2063039;28;1247;-79
2021/12/22 06:01:20;;;;;;;;;;;;;;;;;;2061067;28;1798;-79
2021/12/22 06:02:20;;;;;;;;;;;;;;;;;;2060441;28;1330;-81
2021/12/22 06:03:22;;;;;;;;;;;;;;;;;;2049975;29;1256;-80
2021/12/22 06:04:23;;;;;;;;;;;;;;;;;;2054734;28;1298;-80
2021/12/22 06:05:25;;;;;;;;;;;;;;;;;;2066923;28;1910;-80
2021/12/22 06:06:27;;;;;;;;;;;;;;;;;;2057808;28;1728;-79
2021/12/22 06:08:53;;;;;;;;;;;;;;;;;;2062552;28;1285;-80
2021/12/22 06:09:54;;;;;;;;;;;;;;;;;;2065630;28;1338;-80
2021/12/22 06:10:56;;;;;;;;;;;;;;;;;;2063794;28;1646;-80
2021/12/22 06:11:58;;;;;;;;;;;;;;;;;;2058529;28;1250;-79
2021/12/22 06:12:59;;;;;;;;;;;;;;;;;;2066355;28;1282;-80
2021/12/22 06:14:00;;;;;;;;;;;;;;;;;;2058789;28;828;-80
2021/12/22 06:15:02;;;;;;;;;;;;;;;;;;2065994;28;1065;-79
2021/12/22 06:16:02;;;;;;;;;;;;;;;;;;2056662;28;1874;-80
2021/12/22 06:17:04;;;;;;;;;;;;;;;;;;2049518;29;1064;-80
2021/12/22 06:18:05;;;;;;;;;;;;;;;;;;2057631;28;1683;-80
2021/12/22 06:19:09;;;;;;;;;;;;;;;;;;2057623;28;1496;-80
2021/12/22 06:20:11;;;;;;;;;;;;;;;;;;2049413;29;1704;-80
2021/12/22 06:21:13;;;;;;;;;;;;;;;;;;2050360;28;1852;-80
2021/12/22 06:22:15;;;;;;;;;;;;;;;;;;2057519;28;1293;-80
2021/12/22 06:23:16;;;;;;;;;;;;;;;;;;2057799;28;1229;-80
2021/12/22 06:24:17;;;;;;;;;;;;;;;;;;2058201;28;1012;-80
2021/12/22 06:25:18;;;;;;;;;;;;;;;;;;2049368;29;1903;-80
2021/12/22 06:26:20;;;;;;;;;;;;;;;;;;2050192;28;1787;-79
2021/12/22 06:27:21;;;;;;;;;;;;;;;;;;2057957;28;940;-80
2021/12/22 06:28:23;;;;;;;;;;;;;;;;;;2057815;28;1486;-81
2021/12/22 06:29:24;;;;;;;;;;;;;;;;;;2057231;28;1017;-80
2021/12/22 06:30:25;;;;;;;;;;;;;;;;;;2049559;29;1593;-80
2021/12/22 06:31:26;;;;;;;;;;;;;;;;;;2042709;28;1773;-80
2021/12/22 06:32:28;;;;;;;;;;;;;;;;;;2049866;29;987;-80
2021/12/22 06:33:28;;;;;;;;;;;;;;;;;;2049315;29;1528;-79
2021/12/22 06:34:30;;;;;;;;;;;;;;;;;;2041958;29;1343;-80
2021/12/22 06:35:32;;;;;;;;;;;;;;;;;;2049446;28;994;-80
2021/12/22 06:36:33;;;;;;;;;;;;;;;;;;2057999;28;1865;-80
2021/12/22 06:37:35;;;;;;;;;;;;;;;;;;2057600;28;882;-80
2021/12/22 06:38:37;;;;;;;;;;;;;;;;;;2054462;28;1266;-80
2021/12/22 06:39:38;;;;;;;;;;;;;;;;;;2057474;28;864;-80
2021/12/22 06:40:40;;;;;;;;;;;;;;;;;;2058500;28;999;-81
2021/12/22 06:41:40;;;;;;;;;;;;;;;;;;2058362;28;1956;-80
2021/12/22 06:42:44;;;;;;;;;;;;;;;;;;2057487;28;1663;-81
2021/12/22 06:43:45;;;;;;;;;;;;;;;;;;2057101;28;1173;-80
2021/12/22 06:44:46;;;;;;;;;;;;;;;;;;2057444;28;1033;-80
2021/12/22 06:45:47;;;;;;;;;;;;;;;;;;2057156;28;1906;-80
2021/12/22 06:46:49;;;;;;;;;;;;;;;;;;2050417;28;2110;-80
2021/12/22 06:47:50;;;;;;;;;;;;;;;;;;2049293;28;1235;-79
2021/12/22 06:48:52;;;;;;;;;;;;;;;;;;2049534;29;1429;-81
2021/12/22 06:49:52;;;;;;;;;;;;;;;;;;2041498;29;1284;-80
2021/12/22 06:50:54;;;;;;;;;;;;;;;;;;2049797;28;1868;-80
2021/12/22 06:51:56;;;;;;;;;;;;;;;;;;2065485;28;1138;-80
2021/12/22 06:52:56;;;;;;;;;;;;;;;;;;2066438;28;853;-79
2021/12/22 06:53:58;;;;;;;;;;;;;;;;;;2065391;28;1458;-80
2021/12/22 06:54:58;;;;;;;;;;;;;;;;;;2049401;28;1557;-80
2021/12/22 06:56:00;;;;;;;;;;;;;;;;;;2049016;28;1883;-80
2021/12/22 06:57:01;;;;;;;;;;;;;;;;;;2049378;29;944;-80
2021/12/22 06:58:04;;;;;;;;;;;;;;;;;;2049854;28;1294;-80
2021/12/22 06:59:05;;;;;;;;;;;;;;;;;;2057403;28;1475;-80
2021/12/22 07:00:09;;;;;;;;;;;;;;;;;;2049427;29;1635;-80
2021/12/22 07:01:16;;;;;;;;;;;;;;;;;;2051564;28;1941;-80
2021/12/22 07:02:16;;;;;;;;;;;;;;;;;;2057361;28;1501;-80
2021/12/22 07:03:18;;;;;;;;;;;;;;;;;;2057316;28;1092;-79
2021/12/22 07:04:19;;;;;;;;;;;;;;;;;;2057333;28;1474;-79
2021/12/22 07:05:21;;;;;;;;;;;;;;;;;;2057643;28;964;-81
2021/12/22 07:06:21;;;;;;;;;;;;;;;;;;2058618;28;1875;-81
2021/12/22 07:07:23;;;;;;;;;;;;;;;;;;2057236;28;1542;-80
2021/12/22 07:08:24;;;;;;;;;;;;;;;;;;2057530;28;801;-80
2021/12/22 07:09:26;;;;;;;;;;;;;;;;;;2058204;28;991;-80
2021/12/22 07:10:26;;;;;;;;;;;;;;;;;;2058039;28;958;-79
2021/12/22 07:11:28;;;;;;;;;;;;;;;;;;2058159;28;1888;-80
2021/12/22 07:12:29;;;;;;;;;;;;;;;;;;2049409;29;1594;-79
2021/12/22 07:13:32;;;;;;;;;;;;;;;;;;2049213;29;1027;-80
2021/12/22 07:14:34;;;;;;;;;;;;;;;;;;2058313;28;1269;-80
2021/12/22 07:15:34;;;;;;;;;;;;;;;;;;2057134;28;1676;-79
2021/12/22 07:16:37;;;;;;;;;;;;;;;;;;2063268;28;1891;-78
2021/12/22 07:17:37;;;;;;;;;;;;;;;;;;2057400;28;1351;-78
2021/12/22 07:18:39;;;;;;;;;;;;;;;;;;2057221;28;1645;-80
2021/12/22 07:19:42;;;;;;;;;;;;;;;;;;2057162;28;1618;-80